createdAt,value
2023-05-02T00:03:50.145Z,10.6
2023-05-02T00:18:50.020Z,10.6
2023-05-02T00:33:49.999Z,10.6
2023-05-02T00:48:49.962Z,10.5
2023-05-02T01:03:50.093Z,10.5
2023-05-02T01:18:49.967Z,10.4
2023-05-02T01:33:49.922Z,10.4
2023-05-02T01:48:49.935Z,10.4
2023-05-02T02:03:49.944Z,10.2
2023-05-02T02:18:49.936Z,10.1
2023-05-02T02:33:49.864Z,10.3
2023-05-02T02:48:49.887Z,10.2
2023-05-02T03:03:49.942Z,9.9
2023-05-02T03:18:49.875Z,10.1
2023-05-02T03:33:49.798Z,10.1
2023-05-02T03:48:49.829Z,10.6
2023-05-02T04:03:49.767Z,10.9
2023-05-02T04:18:49.807Z,10.8
2023-05-02T04:33:49.750Z,10.8
2023-05-02T04:48:49.771Z,11.1
2023-05-02T05:03:49.851Z,11.1
2023-05-02T05:18:49.705Z,11.3
2023-05-02T05:33:49.719Z,11.4
2023-05-02T05:48:49.658Z,12.5
2023-05-02T06:03:49.777Z,13.3
2023-05-02T06:18:49.628Z,13.7
2023-05-02T06:33:49.636Z,13.8
2023-05-02T06:48:49.601Z,14.2
2023-05-02T07:03:49.605Z,14.8
2023-05-02T07:18:49.559Z,14.7
2023-05-02T07:33:49.520Z,15.1
2023-05-02T07:48:49.536Z,15.4
2023-05-02T08:03:49.601Z,15.6
2023-05-02T08:18:49.494Z,15.6
2023-05-02T08:33:49.498Z,15.2
2023-05-02T08:48:49.410Z,14.6
2023-05-02T09:03:49.623Z,14.9
2023-05-02T09:18:49.396Z,14.5
2023-05-02T09:33:49.351Z,14.6
2023-05-02T09:48:49.310Z,14.7
2023-05-02T10:03:49.352Z,15.5
2023-05-02T10:18:49.367Z,16.3
2023-05-02T10:33:49.293Z,16.4
2023-05-02T10:48:49.366Z,16.4
2023-05-02T11:03:49.300Z,17.6
2023-05-02T11:18:49.183Z,18.4
2023-05-02T11:33:49.184Z,18.9
2023-05-02T11:48:49.209Z,19.3
2023-05-02T12:03:49.372Z,19.8
2023-05-02T12:18:49.227Z,19.7
2023-05-02T12:33:49.209Z,19.2
2023-05-02T12:48:49.337Z,19.6
2023-05-02T13:03:49.049Z,19.9
2023-05-02T13:18:49.009Z,19.9
2023-05-02T13:33:48.968Z,19.9
2023-05-02T13:48:48.927Z,20.1
2023-05-02T14:03:49.105Z,20.3
2023-05-02T14:18:49.304Z,20.4
2023-05-02T14:33:48.904Z,20.5
2023-05-02T14:48:49.011Z,20.8
2023-05-02T15:04:04.123Z,20.7
2023-05-02T15:18:49.058Z,20.7
2023-05-02T15:33:48.793Z,20.7
2023-05-02T15:48:48.695Z,21
2023-05-02T16:03:48.906Z,21
2023-05-02T16:18:49.348Z,20.9
2023-05-02T16:33:48.627Z,20.8
2023-05-02T16:48:49.129Z,20.7
2023-05-02T17:03:49.375Z,20.7
2023-05-02T17:18:48.579Z,20.7
2023-05-02T17:33:48.479Z,20.6
2023-05-02T17:48:48.532Z,20.5
2023-05-02T18:03:48.542Z,20.4
2023-05-02T18:18:48.457Z,20
2023-05-02T18:33:48.395Z,19.6
2023-05-02T18:48:48.439Z,19.3
2023-05-02T19:03:48.505Z,18.9
2023-05-02T19:18:48.364Z,18.7
2023-05-02T19:33:48.279Z,18.5
2023-05-02T19:48:48.319Z,18.2
2023-05-02T20:03:48.357Z,18
2023-05-02T20:18:48.370Z,17.8
2023-05-02T20:33:48.230Z,17.6
2023-05-02T20:48:48.241Z,17.4
2023-05-02T21:03:48.178Z,17.2
2023-05-02T21:18:48.200Z,16.9
2023-05-02T21:33:48.099Z,16.7
2023-05-02T21:48:48.097Z,16.6
2023-05-02T22:03:48.037Z,16.4
2023-05-02T22:18:48.080Z,16.1
2023-05-02T22:33:47.981Z,16
2023-05-02T22:48:48.045Z,15.3
2023-05-02T23:03:48.031Z,14.2
2023-05-02T23:18:47.965Z,13.5
2023-05-02T23:33:47.951Z,13.5
2023-05-02T23:48:47.941Z,13.1
